Time;durP1;ratioP1;P1;durP2;ratioP2;P2;SDS_P1;SDS_P2;PMS_P1;PMS_P2;Temp;Humidity;BMP_temperature;BMP_pressure;BME280_temperature;BME280_humidity;BME280_pressure;Samples;Min_cycle;Max_cycle;Signal;HPM_P1;HPM_P2
2023/12/09 00:02:06;;;;;;;12.32;3.65;;;;;;;2.43;100.00;101048.94;10453998;28;20037;-69
2023/12/09 00:07:07;;;;;;;12.18;3.67;;;;;;;2.63;100.00;101079.13;10453729;28;20041;-70
2023/12/09 00:12:08;;;;;;;8.80;3.58;;;;;;;2.66;100.00;101071.06;10454105;28;20496;-70
2023/12/09 00:17:09;;;;;;;5.07;2.20;;;;;;;2.68;100.00;101074.44;10454494;28;20488;-69
2023/12/09 00:22:10;;;;;;;6.38;3.45;;;;;;;2.41;100.00;101027.22;10453296;28;20053;-70
2023/12/09 00:27:10;;;;;;;7.45;3.50;;;;;;;2.67;100.00;101060.47;10428674;28;20056;-70
2023/12/09 00:32:11;;;;;;;10.27;3.75;;;;;;;2.66;100.00;101061.41;10411475;28;20382;-70
2023/12/09 00:37:12;;;;;;;5.32;3.13;;;;;;;2.52;100.00;101040.47;10413337;28;20495;-70
2023/12/09 00:42:13;;;;;;;13.32;3.63;;;;;;;2.38;100.00;101002.03;10417348;28;20064;-69
2023/12/09 00:47:14;;;;;;;6.78;3.15;;;;;;;2.40;100.00;101001.94;10424219;28;20044;-70
2023/12/09 00:52:15;;;;;;;9.65;3.67;;;;;;;2.68;100.00;101046.41;10460636;28;20127;-69
2023/12/09 00:57:15;;;;;;;10.98;3.63;;;;;;;2.76;100.00;101055.56;10460560;28;20037;-70
2023/12/09 01:02:17;;;;;;;7.80;3.40;;;;;;;2.72;100.00;101034.78;10459830;28;20041;-70
2023/12/09 01:07:17;;;;;;;6.88;3.03;;;;;;;2.82;100.00;101042.88;10459130;28;20041;-70
2023/12/09 01:12:18;;;;;;;10.80;3.75;;;;;;;2.50;100.00;100971.53;10458885;28;20501;-69
2023/12/09 01:17:19;;;;;;;5.53;3.05;;;;;;;2.48;100.00;100961.16;10458936;28;20036;-70
2023/12/09 01:22:20;;;;;;;7.05;3.10;;;;;;;2.18;100.00;100905.47;10458618;28;20144;-70
2023/12/09 01:27:21;;;;;;;9.93;3.33;;;;;;;2.71;100.00;100972.75;10458313;28;20045;-70
2023/12/09 01:32:22;;;;;;;7.20;2.72;;;;;;;2.68;100.00;100965.06;10458410;28;20489;-70
2023/12/09 01:37:23;;;;;;;6.90;2.80;;;;;;;2.78;100.00;100974.97;10458791;28;20037;-70
2023/12/09 01:42:24;;;;;;;8.68;2.42;;;;;;;2.82;100.00;100971.22;10458247;28;20493;-70
2023/12/09 01:47:25;;;;;;;7.47;2.28;;;;;;;2.61;100.00;100942.00;10457755;28;20041;-70
2023/12/09 01:52:25;;;;;;;7.47;2.75;;;;;;;2.92;100.00;100991.47;10458336;28;20044;-70
2023/12/09 01:57:27;;;;;;;7.68;3.13;;;;;;;2.56;100.00;100937.03;10457613;28;20130;-71
2023/12/09 02:02:28;;;;;;;12.60;3.70;;;;;;;2.66;100.00;100958.25;10456619;28;20064;-70
2023/12/09 02:07:29;;;;;;;5.68;2.85;;;;;;;2.90;100.00;100996.00;10457215;28;20516;-71
2023/12/09 02:12:43;;;;;;;8.32;3.08;;;;;;;2.94;100.00;100988.75;10456472;28;20501;-70
2023/12/09 02:17:47;;;;;;;8.70;3.22;;;;;;;2.90;100.00;101001.25;10456948;28;20436;-70
2023/12/09 02:22:48;;;;;;;6.22;2.78;;;;;;;2.86;100.00;100999.75;10456933;28;20106;-71
2023/12/09 02:27:57;;;;;;;8.18;2.85;;;;;;;2.85;100.00;101005.94;10456158;28;20062;-71
2023/12/09 02:32:59;;;;;;;7.13;2.70;;;;;;;2.84;100.00;100990.28;10455187;28;20518;-70
2023/12/09 02:38:02;;;;;;;6.57;2.85;;;;;;;2.84;100.00;100979.78;10455880;28;20052;-70
2023/12/09 02:43:04;;;;;;;8.00;3.47;;;;;;;2.87;100.00;100976.97;10455998;28;20490;-71
2023/12/09 02:48:06;;;;;;;10.15;3.22;;;;;;;2.82;100.00;100960.72;10455684;28;20118;-70
2023/12/09 02:53:06;;;;;;;7.45;3.08;;;;;;;2.88;100.00;100976.03;10455946;28;20045;-71
2023/12/09 02:58:07;;;;;;;5.97;3.13;;;;;;;2.45;100.00;100901.06;10454168;28;20055;-70
2023/12/09 03:03:08;;;;;;;9.02;2.97;;;;;;;2.90;100.00;100987.25;10453943;28;20045;-71
2023/12/09 03:08:09;;;;;;;6.40;2.60;;;;;;;2.88;100.00;100981.28;10454535;28;20044;-70
2023/12/09 03:13:10;;;;;;;5.18;3.08;;;;;;;2.90;100.00;100990.75;10443712;28;20060;-70
2023/12/09 03:18:11;;;;;;;6.40;3.00;;;;;;;2.89;100.00;100969.84;10455071;28;20091;-70
2023/12/09 03:23:11;;;;;;;10.65;3.42;;;;;;;2.90;100.00;100964.50;10454604;28;20124;-70
2023/12/09 03:28:13;;;;;;;11.00;2.97;;;;;;;2.58;100.00;100908.09;10454790;28;20037;-72
2023/12/09 03:33:13;;;;;;;7.50;2.88;;;;;;;2.89;100.00;100969.84;10452793;28;20053;-70
2023/12/09 03:38:14;;;;;;;4.53;2.42;;;;;;;2.89;100.00;100965.44;10454422;28;20048;-70
2023/12/09 03:43:15;;;;;;;9.23;3.03;;;;;;;2.91;100.00;100958.31;10454161;28;20547;-70
2023/12/09 03:48:16;;;;;;;5.75;2.90;;;;;;;2.90;100.00;100956.63;10454045;28;20041;-70
2023/12/09 03:53:17;;;;;;;6.40;2.38;;;;;;;2.49;100.00;100883.34;10454004;28;20045;-70
2023/12/09 03:58:20;;;;;;;13.35;2.83;;;;;;;2.55;100.00;100885.53;10454204;28;20450;-70
2023/12/09 04:03:21;;;;;;;14.55;3.20;;;;;;;2.87;100.00;100940.22;10453696;28;20558;-70
2023/12/09 04:08:21;;;;;;;5.68;2.78;;;;;;;2.90;100.00;100966.25;10453792;28;20090;-70
2023/12/09 04:13:22;;;;;;;5.25;2.45;;;;;;;2.84;100.00;100951.78;10456310;28;20098;-70
2023/12/09 04:18:23;;;;;;;12.82;2.92;;;;;;;2.80;100.00;100950.31;10461131;28;20131;-70
2023/12/09 04:23:24;;;;;;;7.03;3.15;;;;;;;2.86;100.00;100955.13;10460657;28;20175;-72
2023/12/09 04:28:25;;;;;;;8.48;3.67;;;;;;;2.97;100.00;100968.38;10460629;28;20043;-70
2023/12/09 04:33:27;;;;;;;10.07;3.13;;;;;;;2.97;100.00;100967.53;10460360;28;20051;-71
2023/12/09 04:38:27;;;;;;;8.50;3.38;;;;;;;2.67;100.00;100924.06;10448085;28;20045;-70
2023/12/09 04:43:28;;;;;;;8.73;3.33;;;;;;;2.63;100.00;100911.25;10460784;28;20048;-70
2023/12/09 04:48:29;;;;;;;6.07;2.70;;;;;;;2.98;100.00;100979.72;10459061;28;20037;-70
2023/12/09 04:53:30;;;;;;;9.07;3.30;;;;;;;3.00;100.00;100962.09;10454097;28;20124;-70
2023/12/09 04:58:30;;;;;;;6.05;2.58;;;;;;;2.70;100.00;100895.00;10435844;28;20048;-70
2023/12/09 05:03:31;;;;;;;8.65;3.58;;;;;;;2.74;100.00;100885.13;10418790;28;20099;-69
2023/12/09 05:08:32;;;;;;;4.63;2.38;;;;;;;2.80;100.00;100876.00;10431829;28;20033;-70
2023/12/09 05:13:33;;;;;;;10.73;2.92;;;;;;;2.93;100.00;100889.94;10459591;28;20041;-70
2023/12/09 05:18:34;;;;;;;7.85;3.20;;;;;;;3.13;100.00;100904.34;10459036;28;20041;-70
2023/12/09 05:23:35;;;;;;;4.85;1.60;;;;;;;3.10;100.00;100881.75;10432399;28;20057;-72
2023/12/09 05:28:36;;;;;;;3.92;2.13;;;;;;;3.28;100.00;100897.19;10417475;28;20044;-70
2023/12/09 05:33:37;;;;;;;6.03;2.97;;;;;;;3.07;100.00;100873.25;10417957;28;20037;-71
2023/12/09 05:38:38;;;;;;;12.18;3.13;;;;;;;3.13;100.00;100863.16;10416648;28;20525;-70
2023/12/09 05:43:39;;;;;;;12.27;3.20;;;;;;;3.46;100.00;100902.91;10418056;28;20038;-71
2023/12/09 05:48:40;;;;;;;7.95;2.83;;;;;;;3.58;100.00;100910.75;10440358;28;20469;-72
2023/12/09 05:53:41;;;;;;;10.70;3.65;;;;;;;3.67;100.00;100909.28;10408466;28;20088;-71
2023/12/09 05:58:42;;;;;;;8.02;3.65;;;;;;;3.70;100.00;100892.44;10414086;28;20048;-71
2023/12/09 06:03:43;;;;;;;13.20;3.70;;;;;;;3.39;100.00;100842.94;10420749;28;20531;-71
2023/12/09 06:08:43;;;;;;;6.68;3.65;;;;;;;3.80;100.00;100891.69;10426514;28;20051;-71
2023/12/09 06:13:44;;;;;;;7.25;2.80;;;;;;;3.44;100.00;100813.75;10440072;28;20508;-72
2023/12/09 06:18:48;;;;;;;6.60;2.83;;;;;;;3.91;100.00;100864.59;10435778;28;20248;-70
2023/12/09 06:23:50;;;;;;;6.63;2.75;;;;;;;3.91;100.00;100842.75;10431512;28;20084;-72
2023/12/09 06:28:51;;;;;;;16.88;3.67;;;;;;;3.69;100.00;100815.41;10441512;28;20073;-71
2023/12/09 06:33:52;;;;;;;11.20;4.07;;;;;;;3.97;100.00;100853.63;10429069;28;20044;-71
2023/12/09 06:38:53;;;;;;;8.75;3.38;;;;;;;4.01;100.00;100839.34;10438965;28;20045;-71
2023/12/09 06:43:55;;;;;;;7.22;3.58;;;;;;;4.03;100.00;100847.94;10451899;28;20049;-73
2023/12/09 06:48:56;;;;;;;9.23;3.35;;;;;;;3.48;100.00;100752.16;10424851;28;20033;-71
2023/12/09 06:53:57;;;;;;;7.50;3.40;;;;;;;4.11;100.00;100844.75;10414896;28;20049;-72
2023/12/09 06:58:57;;;;;;;10.30;4.15;;;;;;;3.56;100.00;100767.34;10439563;28;20043;-72
2023/12/09 07:03:58;;;;;;;9.18;2.85;;;;;;;4.22;100.00;100875.47;10455798;28;20037;-71
2023/12/09 07:08:59;;;;;;;5.03;2.42;;;;;;;4.26;100.00;100882.22;10454482;28;20037;-72
2023/12/09 07:14:00;;;;;;;7.60;3.25;;;;;;;4.29;100.00;100882.00;10455408;28;20097;-72
2023/12/09 07:19:00;;;;;;;6.72;2.72;;;;;;;4.35;100.00;100885.00;10455414;28;20045;-69
2023/12/09 07:24:01;;;;;;;7.95;3.53;;;;;;;4.38;100.00;100883.94;10453419;28;20100;-71
2023/12/09 07:29:05;;;;;;;7.63;2.45;;;;;;;4.39;100.00;100840.03;10453903;28;20175;-70
2023/12/09 07:34:06;;;;;;;6.37;3.00;;;;;;;4.49;100.00;100844.50;10454019;28;20037;-71
2023/12/09 07:39:08;;;;;;;8.18;3.35;;;;;;;4.39;100.00;100832.97;10453720;28;20519;-70
2023/12/09 07:44:10;;;;;;;7.00;3.10;;;;;;;4.27;100.00;100791.84;10454314;28;20484;-74
2023/12/09 07:49:11;;;;;;;6.22;2.75;;;;;;;4.60;100.00;100837.56;10459845;28;20500;-71
2023/12/09 07:54:12;;;;;;;8.55;3.28;;;;;;;4.59;100.00;100818.31;10462221;28;20052;-72
2023/12/09 07:59:12;;;;;;;9.45;2.88;;;;;;;4.51;100.00;100787.31;10460669;28;20044;-72
2023/12/09 08:04:13;;;;;;;9.20;3.20;;;;;;;4.64;100.00;100795.13;10461613;28;20057;-71
2023/12/09 08:09:15;;;;;;;5.80;3.20;;;;;;;4.62;100.00;100790.94;10462079;28;20045;-71
2023/12/09 08:14:16;;;;;;;10.55;3.67;;;;;;;4.20;100.00;100717.84;10462302;28;20033;-70
2023/12/09 08:19:17;;;;;;;4.72;2.28;;;;;;;4.43;100.00;100755.53;10461549;28;20045;-72
2023/12/09 08:24:17;;;;;;;7.40;3.33;;;;;;;4.64;100.00;100778.50;10438085;28;20148;-72
2023/12/09 08:29:18;;;;;;;7.90;3.15;;;;;;;4.33;100.00;100725.63;10418561;28;20041;-73
2023/12/09 08:34:19;;;;;;;9.35;4.00;;;;;;;4.65;100.00;100761.75;10447856;28;20104;-71
2023/12/09 08:39:22;;;;;;;9.25;3.08;;;;;;;4.70;100.00;100767.50;10461082;28;20067;-72
2023/12/09 08:44:23;;;;;;;9.13;3.90;;;;;;;4.07;100.00;100620.69;10460028;28;20128;-73
2023/12/09 08:49:23;;;;;;;9.27;3.90;;;;;;;4.41;100.00;100672.44;10460951;28;20047;-73
2023/12/09 08:54:24;;;;;;;7.53;3.60;;;;;;;4.21;100.00;100611.69;10460100;28;20069;-71
2023/12/09 08:59:25;;;;;;;10.43;3.45;;;;;;;4.94;100.00;100707.66;10459803;28;20048;-72
2023/12/09 09:04:26;;;;;;;10.60;2.92;;;;;;;4.99;100.00;100694.94;10458643;28;20037;-73
2023/12/09 09:09:26;;;;;;;8.70;3.45;;;;;;;4.93;100.00;100677.00;10459520;28;20036;-72
2023/12/09 09:14:27;;;;;;;6.22;2.38;;;;;;;4.10;100.00;100556.50;10458692;28;20037;-73
2023/12/09 09:19:28;;;;;;;8.52;3.33;;;;;;;4.89;100.00;100657.16;10458872;28;20059;-73
2023/12/09 09:24:29;;;;;;;10.00;2.60;;;;;;;4.85;100.00;100636.50;10458379;28;20057;-72
2023/12/09 09:29:30;;;;;;;5.85;2.80;;;;;;;4.65;100.00;100583.66;10458377;28;20076;-71
2023/12/09 09:34:30;;;;;;;7.05;2.85;;;;;;;4.80;100.00;100594.72;10431753;28;20854;-71
2023/12/09 09:39:31;;;;;;;8.43;2.53;;;;;;;4.65;100.00;100583.66;10416604;28;20041;-72
2023/12/09 09:44:36;;;;;;;7.57;2.95;;;;;;;4.95;100.00;100637.41;10417758;28;20045;-71
2023/12/09 09:49:37;;;;;;;;;;;;;;;5.04;100.00;100639.28;10448126;28;20071;-72
2023/12/09 09:54:39;;;;;;;5.65;2.72;;;;;;;4.88;100.00;100604.66;10458424;28;19952;-73
2023/12/09 09:59:40;;;;;;;9.43;2.80;;;;;;;4.99;100.00;100615.13;10457706;28;20052;-71
2023/12/09 10:04:41;;;;;;;6.97;3.38;;;;;;;4.58;100.00;100558.81;10455868;28;20484;-71
2023/12/09 10:09:42;;;;;;;9.18;3.38;;;;;;;4.98;100.00;100616.09;10457257;28;20132;-72
2023/12/09 10:14:43;;;;;;;10.27;3.67;;;;;;;4.99;100.00;100617.75;10456954;28;20040;-72
2023/12/09 10:19:45;;;;;;;7.32;2.97;;;;;;;4.91;100.00;100610.50;10450218;28;20063;-73
2023/12/09 10:24:52;;;;;;;9.10;2.65;;;;;;;4.98;100.00;100602.94;10429324;28;20417;-73
2023/12/09 10:29:54;;;;;;;8.13;3.22;;;;;;;4.99;100.00;100594.88;10451391;28;20045;-70
2023/12/09 10:34:55;;;;;;;7.70;3.63;;;;;;;5.01;100.00;100592.13;10438071;28;20122;-71
2023/12/09 10:39:56;;;;;;;9.40;3.10;;;;;;;5.03;100.00;100588.44;10420632;28;20041;-72
2023/12/09 10:44:57;;;;;;;7.75;3.35;;;;;;;5.01;100.00;100577.19;10431552;28;20049;-70
2023/12/09 10:49:57;;;;;;;7.47;2.60;;;;;;;4.67;100.00;100520.38;10437843;28;20040;-73
2023/12/09 10:54:58;;;;;;;8.77;3.00;;;;;;;4.96;100.00;100567.97;10455576;28;20048;-70
2023/12/09 11:00:01;;;;;;;6.40;3.17;;;;;;;4.81;100.00;100551.66;10453426;28;20135;-72
2023/12/09 11:05:02;;;;;;;8.73;3.20;;;;;;;4.99;100.00;100584.34;10453418;28;20127;-70
2023/12/09 11:10:06;;;;;;;13.15;3.58;;;;;;;4.74;100.00;100532.91;10454510;28;20052;-72
2023/12/09 11:15:13;;;;;;;6.53;3.28;;;;;;;5.01;100.00;100579.81;10454204;28;20043;-71
2023/12/09 11:20:18;;;;;;;9.00;3.42;;;;;;;4.35;100.00;100474.69;10454455;28;20055;-71
2023/12/09 11:25:21;;;;;;;6.95;2.08;;;;;;;4.99;100.00;100578.25;10454690;28;20497;-71
2023/12/09 11:30:42;;;;;;;6.70;2.78;;;;;;;4.99;100.00;100578.25;10454344;28;20037;-72
2023/12/09 11:35:45;;;;;;;8.25;2.90;;;;;;;4.70;100.00;100526.22;10454990;28;20043;-73
2023/12/09 11:40:47;;;;;;;13.50;3.38;;;;;;;4.76;100.00;100530.97;10454184;28;20033;-71
2023/12/09 11:45:50;;;;;;;8.20;2.70;;;;;;;4.62;100.00;100512.84;10453728;28;20041;-71
2023/12/09 11:50:52;;;;;;;6.88;2.70;;;;;;;4.93;100.00;100568.22;10454042;28;20048;-72
2023/12/09 11:55:53;;;;;;;4.88;2.60;;;;;;;4.90;100.00;100561.41;10453885;28;20132;-71
2023/12/09 12:00:54;;;;;;;7.60;3.40;;;;;;;4.23;100.00;100459.91;10452898;28;20045;-71
2023/12/09 12:05:55;;;;;;;7.07;2.88;;;;;;;4.80;100.00;100565.78;10453405;28;20052;-70
2023/12/09 12:10:56;;;;;;;6.00;2.78;;;;;;;4.74;100.00;100568.91;10454559;28;20037;-70
2023/12/09 12:15:57;;;;;;;5.60;1.95;;;;;;;4.68;100.00;100566.78;10451820;28;20041;-71
2023/12/09 12:20:57;;;;;;;4.63;1.98;;;;;;;4.65;100.00;100565.22;10452744;28;20131;-70
2023/12/09 12:25:58;;;;;;;5.47;2.55;;;;;;;4.64;100.00;100578.53;10453849;28;20056;-70
2023/12/09 12:31:00;;;;;;;4.25;1.55;;;;;;;4.48;100.00;100550.78;10453792;28;20408;-71
2023/12/09 12:36:00;;;;;;;4.82;1.92;;;;;;;4.53;100.00;100551.28;10459309;28;20116;-71
2023/12/09 12:41:02;;;;;;;8.65;1.70;;;;;;;4.07;100.00;100491.84;10460703;28;20135;-72
2023/12/09 12:46:04;;;;;;;5.20;2.38;;;;;;;4.21;100.00;100497.78;10441751;28;20596;-71
2023/12/09 12:51:05;;;;;;;3.90;1.90;;;;;;;4.21;100.00;100509.13;10420203;28;20516;-71
2023/12/09 12:56:06;;;;;;;4.20;2.30;;;;;;;4.46;100.00;100554.53;10459159;28;20097;-71
2023/12/09 13:01:07;;;;;;;2.92;1.58;;;;;;;4.37;100.00;100516.66;10459965;28;20508;-71
2023/12/09 13:06:08;;;;;;;3.85;1.92;;;;;;;4.42;100.00;100517.09;10459702;28;20072;-72
2023/12/09 13:11:09;;;;;;;3.60;2.13;;;;;;;4.43;100.00;100534.56;10459836;28;20400;-71
2023/12/09 13:16:10;;;;;;;4.45;1.95;;;;;;;4.43;100.00;100528.44;10459406;28;20037;-71
2023/12/09 13:21:10;;;;;;;5.20;1.80;;;;;;;4.40;100.00;100512.91;10458433;28;20040;-73
2023/12/09 13:26:12;;;;;;;8.25;2.28;;;;;;;4.44;100.00;100514.34;10459590;28;20056;-70
2023/12/09 13:31:15;;;;;;;4.05;1.70;;;;;;;4.32;100.00;100503.03;10458391;28;20142;-71
2023/12/09 13:36:16;;;;;;;4.35;1.50;;;;;;;4.07;100.00;100455.06;10458634;28;20072;-72
2023/12/09 13:41:17;;;;;;;4.25;1.50;;;;;;;4.36;100.00;100504.44;10457340;28;20126;-72
2023/12/09 13:46:18;;;;;;;4.82;1.88;;;;;;;4.03;100.00;100447.53;10457391;28;20064;-70
2023/12/09 13:51:19;;;;;;;3.58;1.83;;;;;;;4.00;100.00;100442.50;10458104;28;20039;-71
2023/12/09 13:56:20;;;;;;;3.17;1.33;;;;;;;4.36;100.00;100496.53;10457762;28;20162;-71
2023/12/09 14:01:21;;;;;;;2.13;1.15;;;;;;;4.04;100.00;100443.97;10457455;28;20040;-73
2023/12/09 14:06:22;;;;;;;2.20;1.40;;;;;;;4.00;100.00;100434.63;10458018;28;20496;-70
2023/12/09 14:11:27;;;;;;;3.60;1.50;;;;;;;4.27;100.00;100479.72;10456580;28;20048;-71
2023/12/09 14:16:27;;;;;;;;;;;;;;;4.42;100.00;100501.31;10455927;28;20527;-73
2023/12/09 14:21:28;;;;;;;3.75;1.40;;;;;;;4.35;100.00;100497.53;10449590;28;19924;-70
2023/12/09 14:26:29;;;;;;;3.33;1.52;;;;;;;3.96;100.00;100415.66;10448136;28;20106;-72
2023/12/09 14:31:30;;;;;;;2.65;1.20;;;;;;;4.31;100.00;100493.47;10455814;28;20135;-71
2023/12/09 14:36:31;;;;;;;3.75;1.35;;;;;;;4.30;100.00;100505.78;10426073;28;20096;-70
2023/12/09 14:41:31;;;;;;;2.28;0.85;;;;;;;4.30;100.00;100497.88;10414432;28;20063;-69
2023/12/09 14:46:32;;;;;;;2.40;1.35;;;;;;;4.07;100.00;100486.59;10414355;28;20080;-70
2023/12/09 14:51:33;;;;;;;2.83;1.40;;;;;;;4.00;100.00;100489.81;10413780;28;20133;-71
2023/12/09 14:56:34;;;;;;;4.50;1.40;;;;;;;4.11;100.00;100519.56;10441284;28;20135;-70
2023/12/09 15:01:35;;;;;;;6.57;1.35;;;;;;;4.11;100.00;100518.72;10455944;28;20048;-70
2023/12/09 15:06:36;;;;;;;2.65;0.95;;;;;;;4.02;100.00;100506.31;10455074;28;20051;-71
2023/12/09 15:11:36;;;;;;;2.70;1.20;;;;;;;4.05;100.00;100509.53;10453734;28;20071;-71
2023/12/09 15:16:38;;;;;;;3.00;1.20;;;;;;;4.06;100.00;100511.19;10455005;28;20049;-70
2023/12/09 15:21:39;;;;;;;2.22;0.98;;;;;;;3.98;100.00;100513.63;10454835;28;20401;-70
2023/12/09 15:26:39;;;;;;;1.67;0.90;;;;;;;3.64;100.00;100460.25;10455606;28;20053;-72
2023/12/09 15:31:40;;;;;;;3.28;1.17;;;;;;;3.98;100.00;100508.38;10454857;28;20136;-71
2023/12/09 15:36:41;;;;;;;2.50;1.15;;;;;;;3.97;100.00;100522.44;10453971;28;20389;-69
2023/12/09 15:41:42;;;;;;;2.95;1.00;;;;;;;3.95;100.00;100508.59;10446227;28;20033;-69
2023/12/09 15:46:44;;;;;;;1.33;0.52;;;;;;;3.89;100.00;100503.84;10447626;28;20049;-70
2023/12/09 15:51:49;;;;;;;4.57;1.30;;;;;;;3.56;100.00;100454.75;10442312;28;20040;-70
2023/12/09 15:56:50;;;;;;;1.42;0.75;;;;;;;3.70;100.00;100477.31;10454227;28;20048;-68
2023/12/09 16:01:53;;;;;;;3.08;1.10;;;;;;;3.79;100.00;100505.50;10453898;28;20037;-68
2023/12/09 16:06:54;;;;;;;2.80;1.27;;;;;;;3.48;100.00;100454.53;10454505;28;20041;-68
2023/12/09 16:11:55;;;;;;;2.72;1.42;;;;;;;3.73;100.00;100490.22;10432872;28;20041;-69
2023/12/09 16:16:56;;;;;;;1.90;0.82;;;;;;;3.63;100.00;100488.31;10441817;28;20076;-72
2023/12/09 16:21:57;;;;;;;5.80;2.60;;;;;;;3.00;100.00;100394.38;10456987;28;20095;-71
2023/12/09 16:26:58;;;;;;;2.15;1.17;;;;;;;3.55;100.00;100488.06;10448311;28;20049;-68
2023/12/09 16:31:58;;;;;;;1.92;1.00;;;;;;;3.58;100.00;100494.88;10431999;28;20045;-70
2023/12/09 16:36:59;;;;;;;1.60;0.80;;;;;;;3.49;100.00;100493.78;10403311;28;20037;-72
2023/12/09 16:42:00;;;;;;;1.77;0.75;;;;;;;2.98;100.00;100481.91;10422967;28;20059;-72
2023/12/09 16:47:01;;;;;;;3.35;0.57;;;;;;;2.74;100.00;100487.19;10400838;28;20521;-73
2023/12/09 16:52:02;;;;;;;1.75;0.82;;;;;;;2.47;100.00;100474.34;10414920;28;20506;-70
2023/12/09 16:57:03;;;;;;;2.22;0.90;;;;;;;2.26;100.00;100453.16;10448794;28;20043;-74
2023/12/09 17:02:04;;;;;;;1.75;0.98;;;;;;;2.36;100.00;100503.13;10458780;28;20053;-69
2023/12/09 17:07:04;;;;;;;1.80;0.85;;;;;;;1.83;100.00;100429.25;10459450;28;20594;-69
2023/12/09 17:12:06;;;;;;;2.15;0.80;;;;;;;2.00;100.00;100483.03;10458942;28;20128;-69
2023/12/09 17:17:07;;;;;;;2.33;0.90;;;;;;;1.95;100.00;100501.72;10458648;28;20041;-69
2023/12/09 17:22:08;;;;;;;2.67;1.42;;;;;;;1.86;100.00;100481.41;10434992;28;21254;-70
2023/12/09 17:27:10;;;;;;;3.47;1.17;;;;;;;1.69;100.00;100468.66;10455746;28;20477;-69
2023/12/09 17:32:12;;;;;;;2.42;0.95;;;;;;;1.56;100.00;100469.53;10447214;28;20049;-69
2023/12/09 17:37:13;;;;;;;2.05;1.10;;;;;;;1.55;100.00;100487.94;10417077;28;20037;-71
2023/12/09 17:42:13;;;;;;;3.17;1.45;;;;;;;1.48;100.00;100479.69;10417230;28;20397;-69
2023/12/09 17:47:14;;;;;;;3.50;0.88;;;;;;;1.46;100.00;100472.88;10417174;28;20124;-69
2023/12/09 17:52:16;;;;;;;2.75;1.30;;;;;;;1.23;100.00;100446.53;10426476;28;20041;-70
2023/12/09 17:57:17;;;;;;;4.13;1.35;;;;;;;1.30;100.00;100483.56;10457552;28;20041;-70
2023/12/09 18:02:18;;;;;;;5.28;1.70;;;;;;;1.23;100.00;100475.31;10457832;28;20504;-70
2023/12/09 18:07:18;;;;;;;3.42;1.65;;;;;;;1.21;100.00;100476.34;10457569;28;20061;-70
2023/12/09 18:12:19;;;;;;;3.55;1.52;;;;;;;0.97;100.00;100443.06;10457913;28;20036;-70
2023/12/09 18:17:20;;;;;;;1.98;1.02;;;;;;;1.14;100.00;100474.16;10457162;28;20123;-71
2023/12/09 18:22:21;;;;;;;2.58;1.60;;;;;;;0.69;100.00;100399.66;10456369;28;20148;-70
2023/12/09 18:27:22;;;;;;;5.13;1.95;;;;;;;0.86;100.00;100433.31;10456822;28;20083;-70
2023/12/09 18:32:23;;;;;;;5.55;2.10;;;;;;;1.18;100.00;100490.47;10455996;28;20079;-70
2023/12/09 18:37:24;;;;;;;4.20;1.50;;;;;;;1.11;100.00;100478.78;10455648;28;20049;-70
2023/12/09 18:42:25;;;;;;;3.85;1.77;;;;;;;1.07;100.00;100480.72;10455859;28;20416;-70
2023/12/09 18:47:29;;;;;;;5.22;1.80;;;;;;;0.81;100.00;100438.03;10450030;28;20090;-70
2023/12/09 18:52:31;;;;;;;5.80;1.48;;;;;;;0.72;100.00;100429.97;10414703;28;20050;-70
2023/12/09 18:57:32;;;;;;;5.60;1.70;;;;;;;1.04;100.00;100477.50;10414913;28;20076;-70
2023/12/09 19:02:32;;;;;;;3.53;1.40;;;;;;;0.85;100.00;100451.75;10418690;28;20071;-68
2023/12/09 19:07:33;;;;;;;8.18;2.17;;;;;;;0.91;100.00;100454.78;10446577;28;20045;-70
2023/12/09 19:12:34;;;;;;;9.95;2.38;;;;;;;1.01;100.00;100469.84;10454574;28;20037;-71
2023/12/09 19:17:35;;;;;;;4.40;1.73;;;;;;;0.98;100.00;100467.44;10454342;28;20540;-71
2023/12/09 19:22:36;;;;;;;3.08;1.42;;;;;;;0.74;100.00;100421.06;10454189;28;20135;-70
2023/12/09 19:27:37;;;;;;;4.15;1.38;;;;;;;0.96;100.00;100453.63;10454439;28;20037;-71
2023/12/09 19:32:37;;;;;;;5.70;2.33;;;;;;;0.90;100.00;100452.28;10454592;28;20123;-71
2023/12/09 19:37:39;;;;;;;6.78;2.03;;;;;;;0.64;100.00;100412.19;10453862;28;20140;-72
2023/12/09 19:42:40;;;;;;;7.35;2.08;;;;;;;0.95;100.00;100452.78;10454064;28;20037;-72
2023/12/09 19:47:41;;;;;;;5.15;2.50;;;;;;;1.02;100.00;100461.09;10454277;28;20041;-70
2023/12/09 19:52:41;;;;;;;3.13;1.63;;;;;;;1.03;100.00;100460.13;10441165;28;20095;-70
2023/12/09 19:57:42;;;;;;;3.30;1.40;;;;;;;1.05;100.00;100442.56;10454436;28;20386;-70
2023/12/09 20:02:46;;;;;;;9.25;2.97;;;;;;;0.95;100.00;100423.19;10454009;28;20162;-70
2023/12/09 20:07:47;;;;;;;7.53;2.40;;;;;;;1.11;100.00;100444.75;10453778;28;20072;-70
2023/12/09 20:12:47;;;;;;;4.70;1.70;;;;;;;0.75;100.00;100396.63;10453286;28;20041;-70
2023/12/09 20:17:48;;;;;;;5.88;1.95;;;;;;;0.99;100.00;100428.13;10452237;28;20033;-70
2023/12/09 20:22:49;;;;;;;6.07;2.22;;;;;;;1.15;100.00;100433.13;10445189;28;20061;-70
2023/12/09 20:27:51;;;;;;;4.43;1.50;;;;;;;1.18;100.00;100437.31;10447126;28;20090;-71
2023/12/09 20:32:52;;;;;;;6.10;2.40;;;;;;;0.88;100.00;100391.38;10453323;28;20037;-71
2023/12/09 20:37:53;;;;;;;4.47;1.90;;;;;;;1.17;100.00;100443.47;10452706;28;20520;-69
2023/12/09 20:42:54;;;;;;;7.03;2.22;;;;;;;1.19;100.00;100436.38;10441579;28;20560;-70
2023/12/09 20:47:56;;;;;;;3.28;1.80;;;;;;;0.92;100.00;100379.75;10393045;28;20042;-71
2023/12/09 20:52:56;;;;;;;7.22;2.70;;;;;;;1.13;100.00;100424.53;10401779;28;20413;-70
2023/12/09 20:57:58;;;;;;;8.95;2.50;;;;;;;0.84;100.00;100359.38;10433934;28;20049;-71
2023/12/09 21:03:00;;;;;;;4.65;1.90;;;;;;;1.23;100.00;100398.59;10422077;28;20455;-71
2023/12/09 21:08:01;;;;;;;4.65;1.65;;;;;;;1.22;100.00;100399.53;10448784;28;20417;-70
2023/12/09 21:13:02;;;;;;;8.23;2.80;;;;;;;0.81;100.00;100340.47;10418264;28;20037;-71
2023/12/09 21:18:06;;;;;;;4.03;1.83;;;;;;;1.27;100.00;100400.88;10418344;28;20041;-70
2023/12/09 21:23:07;;;;;;;3.33;1.93;;;;;;;1.30;100.00;100395.44;10417663;28;20053;-70
2023/12/09 21:28:08;;;;;;;5.88;2.17;;;;;;;1.30;100.00;100384.13;10417173;28;20547;-70
2023/12/09 21:33:08;;;;;;;6.60;1.80;;;;;;;1.33;100.00;100405.69;10417757;28;20067;-71
2023/12/09 21:38:09;;;;;;;5.88;2.25;;;;;;;1.42;100.00;100392.91;10417633;28;20516;-70
2023/12/09 21:43:10;;;;;;;7.20;2.45;;;;;;;1.45;100.00;100387.44;10421698;28;20037;-70
2023/12/09 21:48:13;;;;;;;4.35;2.30;;;;;;;1.46;100.00;100378.63;10454619;28;20408;-70
2023/12/09 21:53:14;;;;;;;4.77;1.83;;;;;;;1.46;100.00;100376.84;10458141;28;20036;-68
2023/12/09 21:58:15;;;;;;;6.80;2.45;;;;;;;1.39;100.00;100348.63;10458788;28;20043;-68
2023/12/09 22:03:18;;;;;;;9.32;2.83;;;;;;;1.53;100.00;100379.88;10457125;28;20041;-67
2023/12/09 22:08:19;;;;;;;6.50;2.80;;;;;;;1.14;100.00;100304.09;10457848;28;20106;-70
2023/12/09 22:13:20;;;;;;;4.22;1.92;;;;;;;1.36;100.00;100331.34;10456739;28;20447;-70
2023/12/09 22:18:20;;;;;;;14.20;6.53;;;;;;;1.23;100.00;100320.09;10456771;28;20083;-70
2023/12/09 22:23:21;;;;;;;8.88;3.40;;;;;;;1.49;100.00;100373.19;10457032;28;20080;-70
2023/12/09 22:28:22;;;;;;;15.98;8.07;;;;;;;1.54;100.00;100364.06;10456657;28;20052;-70
2023/12/09 22:33:23;;;;;;;9.63;4.07;;;;;;;1.43;100.00;100360.53;10456108;28;20037;-71
2023/12/09 22:38:24;;;;;;;12.30;5.10;;;;;;;1.48;100.00;100368.91;10456247;28;20080;-70
2023/12/09 22:43:25;;;;;;;8.77;3.10;;;;;;;1.50;100.00;100361.78;10455768;28;20496;-70
2023/12/09 22:48:25;;;;;;;11.38;4.20;;;;;;;1.45;100.00;100372.56;10455941;28;20515;-68
2023/12/09 22:53:26;;;;;;;9.10;3.45;;;;;;;1.52;100.00;100378.19;10455336;28;20452;-68
2023/12/09 22:58:27;;;;;;;11.77;3.67;;;;;;;1.49;100.00;100374.00;10455541;28;20040;-68
2023/12/09 23:03:28;;;;;;;9.88;3.58;;;;;;;1.22;100.00;100334.94;10455687;28;20409;-67